Time;durP1;ratioP1;P1;durP2;ratioP2;P2;SDS_P1;SDS_P2;PMS_P1;PMS_P2;Temp;Humidity;BMP_temperature;BMP_pressure;BME280_temperature;BME280_humidity;BME280_pressure;Samples;Min_cycle;Max_cycle;Signal;HPM_P1;HPM_P2
2022/01/25 00:33:26;;;;;;;0.00;0.00;;;;;;;3.23;100.00;103360.09;10376117;28;20112;-69
2022/01/25 00:38:26;;;;;;;0.00;0.00;;;;;;;3.23;100.00;103354.84;10375775;28;20034;-70
2022/01/25 00:43:27;;;;;;;0.00;0.00;;;;;;;3.23;100.00;103357.47;10375666;28;20022;-71
2022/01/25 00:53:58;;;;;;;0.00;0.00;;;;;;;3.21;100.00;103346.16;10375789;28;20022;-70
2022/01/25 00:59:00;;;;;;;0.00;0.00;;;;;;;3.21;100.00;103346.16;10375225;28;20029;-69
2022/01/25 01:04:01;;;;;;;0.00;0.00;;;;;;;3.18;100.00;103353.22;10374813;28;20025;-69
2022/01/25 01:09:02;;;;;;;0.00;0.00;;;;;;;3.18;100.00;103352.38;10374389;28;20033;-69
2022/01/25 01:14:13;;;;;;;0.00;0.00;;;;;;;3.16;100.00;103349.78;10374457;28;20432;-70
2022/01/25 01:30:05;;;;;;;0.00;0.00;;;;;;;3.15;100.00;103348.06;10373763;28;20029;-71
2022/01/25 01:35:32;;;;;;;0.00;0.00;;;;;;;3.16;100.00;103346.28;10373885;28;20473;-71
2022/01/25 01:50:46;;;;;;;0.00;0.00;;;;;;;3.16;100.00;103347.13;10374167;28;20038;-70
2022/01/25 01:55:47;;;;;;;0.00;0.00;;;;;;;3.17;100.00;103342.72;10373401;28;20472;-71
2022/01/25 02:00:48;;;;;;;0.00;0.00;;;;;;;3.17;100.00;103343.63;10372762;28;20060;-72
2022/01/25 02:05:49;;;;;;;0.00;0.00;;;;;;;3.16;100.00;103333.13;10372317;28;20511;-71
2022/01/25 02:10:49;;;;;;;0.00;0.00;;;;;;;3.16;100.00;103344.50;10372156;28;20065;-71
2022/01/25 02:15:50;;;;;;;0.00;0.00;;;;;;;3.17;100.00;103351.53;10372780;28;20026;-71
2022/01/25 02:26:13;;;;;;;0.00;0.00;;;;;;;3.16;100.00;103339.25;10372121;28;20540;-70
2022/01/25 02:31:16;;;;;;;0.00;0.00;;;;;;;3.15;100.00;103340.16;10384873;22;20056;-69
2022/01/25 02:36:27;;;;;;;0.00;0.00;;;;;;;3.15;100.00;103336.69;10326145;28;20185;-70
2022/01/25 02:41:27;;;;;;;0.00;0.00;;;;;;;3.14;100.00;103333.19;10325785;28;20349;-69
2022/01/25 02:51:34;;;;;;;0.00;0.00;;;;;;;3.13;100.00;103335.84;10363989;28;20030;-69
2022/01/25 02:56:36;;;;;;;0.08;0.08;;;;;;;3.11;100.00;103324.50;10324882;28;20034;-69
2022/01/25 03:01:38;;;;;;;0.00;0.00;;;;;;;3.09;100.00;103334.25;10322277;28;20033;-69
2022/01/25 03:06:39;;;;;;;0.00;0.00;;;;;;;3.07;100.00;103323.75;10324334;28;20026;-69
2022/01/25 03:11:40;;;;;;;0.00;0.00;;;;;;;3.07;100.00;103329.00;10324617;28;20426;-69
2022/01/25 03:16:48;;;;;;;0.00;0.00;;;;;;;3.05;100.00;103324.69;10324217;28;20122;-69
2022/01/25 03:21:49;;;;;;;0.00;0.00;;;;;;;3.04;100.00;103321.22;10343197;28;20014;-70
2022/01/25 03:26:49;;;;;;;0.00;0.00;;;;;;;3.01;100.00;103313.41;10323616;28;20473;-69
2022/01/25 03:31:50;;;;;;;0.00;0.00;;;;;;;3.00;100.00;103311.69;10324162;28;20030;-70
2022/01/25 03:36:50;;;;;;;0.00;0.00;;;;;;;3.00;100.00;103316.09;10324107;28;20018;-70
2022/01/25 03:41:51;;;;;;;0.00;0.00;;;;;;;2.98;100.00;103300.34;10323895;28;20433;-70
2022/01/25 03:51:52;;;;;;;0.00;0.00;;;;;;;2.99;100.00;103286.25;10372515;28;20667;-69
2022/01/25 03:56:52;;;;;;;0.00;0.00;;;;;;;3.00;100.00;103288.00;10355048;28;20022;-69
2022/01/25 04:01:52;;;;;;;0.00;0.00;;;;;;;2.99;100.00;103278.34;10340020;28;20061;-69
2022/01/25 04:06:54;;;;;;;0.00;0.00;;;;;;;2.99;100.00;103272.22;10330303;28;20108;-69
2022/01/25 04:11:54;;;;;;;0.00;0.00;;;;;;;2.98;100.00;103271.38;10331565;28;20393;-70
2022/01/25 04:17:05;;;;;;;0.00;0.00;;;;;;;2.97;100.00;103268.78;10331852;28;20025;-69
2022/01/25 04:24:44;;;;;;;0.00;0.00;;;;;;;2.96;100.00;103260.03;10331660;28;20022;-69
2022/01/25 04:27:29;;;;;;;0.00;0.00;;;;;;;2.99;100.00;103274.88;10330323;28;20027;-69
2022/01/25 04:53:54;;;;;;;0.00;0.00;;;;;;;3.05;100.00;103261.50;10329968;28;20030;-69
2022/01/25 04:59:12;;;;;;;0.00;0.00;;;;;;;3.05;100.00;103262.34;10328395;28;20389;-70
2022/01/25 05:04:19;;;;;;;0.00;0.00;;;;;;;3.06;100.00;103258.84;10329997;28;20481;-70
2022/01/25 05:09:20;;;;;;;0.00;0.00;;;;;;;3.05;100.00;103266.75;10329369;28;20029;-69
2022/01/25 05:14:24;;;;;;;0.00;0.00;;;;;;;3.05;100.00;103275.53;10349055;28;20037;-69
2022/01/25 05:24:57;;;;;;;0.00;0.00;;;;;;;3.01;100.00;103283.59;10313988;28;20066;-69
2022/01/25 05:29:57;;;;;;;0.00;0.00;;;;;;;2.99;100.00;103277.50;10327617;28;20058;-70
2022/01/25 05:34:58;;;;;;;0.00;0.00;;;;;;;2.98;100.00;103266.13;10328381;28;20257;-69
2022/01/25 05:40:00;;;;;;;0.00;0.00;;;;;;;2.99;100.00;103265.19;10328160;28;20443;-70
2022/01/25 05:50:13;;;;;;;0.00;0.00;;;;;;;3.01;100.00;103252.84;10333492;28;20034;-69
2022/01/25 05:55:13;;;;;;;0.00;0.00;;;;;;;3.03;100.00;103260.72;10328036;28;20022;-70
2022/01/25 06:00:14;;;;;;;0.00;0.00;;;;;;;3.05;100.00;103259.72;10327246;28;20442;-69
2022/01/25 06:05:14;;;;;;;0.00;0.00;;;;;;;3.07;100.00;103264.94;10327346;28;20125;-69
2022/01/25 06:10:14;;;;;;;0.00;0.00;;;;;;;3.09;100.00;103261.38;10326691;28;20383;-71
2022/01/25 06:15:15;;;;;;;0.00;0.00;;;;;;;3.09;100.00;103252.59;10326277;28;20061;-69
2022/01/25 06:20:17;;;;;;;0.00;0.00;;;;;;;3.12;100.00;103266.53;10326532;28;20026;-71
2022/01/25 06:25:17;;;;;;;0.00;0.00;;;;;;;3.11;100.00;103259.53;10328402;28;20180;-68
2022/01/25 06:30:19;;;;;;;0.00;0.00;;;;;;;3.13;100.00;103257.69;10331033;28;20034;-69
2022/01/25 06:35:19;;;;;;;0.00;0.00;;;;;;;3.13;100.00;103259.47;10325741;28;20026;-69
2022/01/25 06:40:20;;;;;;;0.00;0.00;;;;;;;3.14;100.00;103267.34;10325538;28;20342;-69
2022/01/25 06:45:23;;;;;;;0.00;0.00;;;;;;;3.15;100.00;103263.78;10325560;28;20026;-69
2022/01/25 06:50:23;;;;;;;0.00;0.00;;;;;;;3.16;100.00;103277.81;10325198;28;20069;-69
2022/01/25 06:55:24;;;;;;;0.00;0.00;;;;;;;3.13;100.00;103270.88;10324835;28;20053;-69
2022/01/25 07:00:24;;;;;;;0.00;0.00;;;;;;;3.14;100.00;103277.88;10325464;28;20014;-69
2022/01/25 07:05:25;;;;;;;0.00;0.00;;;;;;;3.12;100.00;103273.56;10347032;28;20025;-69
2022/01/25 07:10:25;;;;;;;0.00;0.00;;;;;;;3.13;100.00;103281.41;10364802;28;20025;-70
2022/01/25 07:15:26;;;;;;;0.00;0.00;;;;;;;3.13;100.00;103270.88;10364617;28;20029;-69
2022/01/25 07:20:26;;;;;;;0.00;0.00;;;;;;;3.12;100.00;103271.78;10364651;28;20096;-69
2022/01/25 07:25:27;;;;;;;0.00;0.00;;;;;;;3.12;100.00;103276.19;10359134;28;20437;-69
2022/01/25 07:30:27;;;;;;;0.00;0.00;;;;;;;3.11;100.00;103280.63;10321877;28;20026;-70
2022/01/25 07:35:28;;;;;;;0.00;0.00;;;;;;;3.11;100.00;103285.88;10324081;28;20361;-69
2022/01/25 07:40:29;;;;;;;0.00;0.00;;;;;;;3.11;100.00;103285.00;10327323;28;20032;-70
2022/01/25 07:45:34;;;;;;;0.00;0.00;;;;;;;3.12;100.00;103284.09;10335982;28;20022;-69
2022/01/25 07:50:36;;;;;;;0.00;0.00;;;;;;;3.11;100.00;103288.50;10323149;28;20034;-69
2022/01/25 07:55:36;;;;;;;0.00;0.00;;;;;;;3.11;100.00;103296.41;10323287;28;20030;-70
2022/01/25 08:00:36;;;;;;;0.00;0.00;;;;;;;3.14;100.00;103292.78;10321855;28;20073;-69
2022/01/25 08:05:37;;;;;;;0.00;0.00;;;;;;;3.15;100.00;103284.84;10323432;28;20418;-69
2022/01/25 08:10:38;;;;;;;0.00;0.00;;;;;;;3.18;100.00;103287.38;10321489;28;20038;-69
2022/01/25 08:15:38;;;;;;;0.00;0.00;;;;;;;3.23;100.00;103287.25;10343197;28;20430;-70
2022/01/25 08:20:38;;;;;;;0.00;0.00;;;;;;;3.28;100.00;103287.94;10363389;28;20105;-70
2022/01/25 08:25:39;;;;;;;0.00;0.00;;;;;;;3.34;100.00;103294.75;10348675;28;20019;-70
2022/01/25 08:30:39;;;;;;;0.00;0.00;;;;;;;3.37;100.00;103298.19;10322411;28;20393;-69
2022/01/25 08:35:40;;;;;;;0.00;0.00;;;;;;;3.39;100.00;103298.13;10399492;22;20042;-67
2022/01/25 08:40:40;;;;;;;0.00;0.00;;;;;;;3.44;100.00;103306.72;10412921;28;20105;-68
2022/01/25 08:45:41;;;;;;;0.00;0.00;;;;;;;3.48;100.00;103308.34;10447255;28;20035;-67
2022/01/25 08:50:42;;;;;;;0.00;0.00;;;;;;;3.53;100.00;103301.13;10455143;28;20036;-67
2022/01/25 08:55:42;;;;;;;0.00;0.00;;;;;;;3.56;100.00;103314.22;10456549;28;20116;-67
2022/01/25 09:00:42;;;;;;;0.00;0.00;;;;;;;3.59;100.00;103311.47;10451881;28;20021;-67
2022/01/25 09:05:43;;;;;;;0.00;0.00;;;;;;;3.61;100.00;103309.66;10455148;28;20043;-67
2022/01/25 09:10:43;;;;;;;0.00;0.00;;;;;;;3.66;100.00;103316.53;10418070;28;20654;-68
2022/01/25 09:15:46;;;;;;;0.00;0.00;;;;;;;3.70;100.00;103320.78;10412354;28;20053;-67
2022/01/25 09:20:46;;;;;;;0.00;0.00;;;;;;;3.70;100.00;103315.53;10412771;28;20085;-67
2022/01/25 09:25:48;;;;;;;0.00;0.00;;;;;;;3.74;100.00;103312.69;10414950;28;20061;-67
2022/01/25 09:30:48;;;;;;;0.00;0.00;;;;;;;3.76;100.00;103316.16;10454612;28;20033;-68
2022/01/25 09:35:50;;;;;;;0.00;0.00;;;;;;;3.81;100.00;103322.13;10455549;28;20033;-68
2022/01/25 09:40:51;;;;;;;0.00;0.00;;;;;;;3.84;100.00;103311.47;10454952;28;20095;-68
2022/01/25 09:45:52;;;;;;;0.00;0.00;;;;;;;3.89;100.00;103310.44;10452827;28;20029;-67
2022/01/25 09:50:52;;;;;;;0.00;0.00;;;;;;;3.91;100.00;103312.13;10454378;28;20033;-68
2022/01/25 09:55:53;;;;;;;0.00;0.00;;;;;;;3.94;100.00;103312.00;10448983;28;20278;-67
2022/01/25 10:00:57;;;;;;;0.00;0.00;;;;;;;4.00;100.00;103311.78;10453907;28;20033;-67
2022/01/25 10:06:00;;;;;;;0.00;0.00;;;;;;;4.08;100.00;103303.59;10453893;28;20500;-67
2022/01/25 10:11:06;;;;;;;0.00;0.00;;;;;;;4.20;100.00;103305.78;10453492;28;20025;-68
2022/01/25 10:16:13;;;;;;;0.00;0.00;;;;;;;4.28;100.00;103316.06;10453554;28;20107;-67
2022/01/25 10:21:17;;;;;;;0.00;0.00;;;;;;;4.32;100.00;103317.66;10453579;28;20017;-67
2022/01/25 10:26:22;;;;;;;0.00;0.00;;;;;;;4.37;100.00;103318.34;10453112;28;20471;-68
2022/01/25 10:31:33;;;;;;;0.00;0.00;;;;;;;4.39;100.00;103305.94;10452861;28;20044;-67
2022/01/25 10:36:39;;;;;;;0.00;0.00;;;;;;;4.47;100.00;103311.78;10452824;28;20448;-67
2022/01/25 10:41:40;;;;;;;0.00;0.00;;;;;;;4.50;100.00;103305.53;10452350;28;20116;-67
2022/01/25 10:46:40;;;;;;;0.00;0.00;;;;;;;4.52;100.00;103307.19;10453110;28;20104;-68
2022/01/25 10:51:49;;;;;;;0.00;0.00;;;;;;;4.57;100.00;103307.03;10452081;28;20028;-67
2022/01/25 10:56:58;;;;;;;0.00;0.00;;;;;;;4.62;100.00;103310.31;10446739;28;20300;-68
2022/01/25 11:02:01;;;;;;;0.00;0.00;;;;;;;4.67;100.00;103304.88;10451035;28;20074;-68
2022/01/25 11:07:10;;;;;;;0.10;0.10;;;;;;;4.70;100.00;103305.59;10451933;28;20033;-69
2022/01/25 11:12:16;;;;;;;0.00;0.00;;;;;;;4.70;100.00;103299.47;10451058;28;20554;-68
2022/01/25 11:17:21;;;;;;;0.00;0.00;;;;;;;4.71;100.00;103302.06;10451044;28;20028;-70
2022/01/25 11:22:23;;;;;;;0.00;0.00;;;;;;;4.73;100.00;103296.72;10451586;28;20047;-69
2022/01/25 11:27:26;;;;;;;0.00;0.00;;;;;;;4.72;100.00;103289.72;10451322;28;20156;-70
2022/01/25 11:32:39;;;;;;;0.00;0.00;;;;;;;4.81;100.00;103289.34;10451129;28;20049;-70
2022/01/25 11:37:49;;;;;;;0.00;0.00;;;;;;;4.83;100.00;103287.53;10451749;28;20021;-70
2022/01/25 11:42:52;;;;;;;0.00;0.00;;;;;;;4.87;100.00;103275.91;10451048;28;20032;-70
2022/01/25 11:47:55;;;;;;;0.00;0.00;;;;;;;4.92;100.00;103271.28;10451075;28;20058;-70
2022/01/25 11:53:05;;;;;;;0.00;0.00;;;;;;;4.95;100.00;103268.53;10450771;28;20468;-69
2022/01/25 11:58:31;;;;;;;0.00;0.00;;;;;;;4.98;100.00;103273.69;10451081;28;20082;-70
2022/01/25 12:03:35;;;;;;;0.00;0.00;;;;;;;4.97;100.00;103249.97;10451662;28;20241;-70
2022/01/25 12:13:44;;;;;;;0.00;0.00;;;;;;;4.97;100.00;103247.31;10459294;28;20108;-70
2022/01/25 12:19:01;;;;;;;0.00;0.00;;;;;;;4.94;100.00;103236.88;10458835;28;20104;-70
2022/01/25 12:24:31;;;;;;;0.00;0.00;;;;;;;4.93;100.00;103224.59;10456921;28;20123;-70
2022/01/25 12:29:36;;;;;;;0.00;0.00;;;;;;;4.90;100.00;103224.75;10454427;28;20033;-70
2022/01/25 12:34:55;;;;;;;0.00;0.00;;;;;;;4.88;100.00;103222.16;10457850;28;20029;-70
2022/01/25 12:40:31;;;;;;;0.00;0.00;;;;;;;4.91;100.00;103227.28;10457840;28;20025;-70
2022/01/25 12:45:43;;;;;;;0.00;0.00;;;;;;;4.94;100.00;103223.66;10457503;28;20064;-69
2022/01/25 12:50:46;;;;;;;0.00;0.00;;;;;;;4.90;100.00;103228.22;10457589;28;20029;-70
2022/01/25 12:55:50;;;;;;;0.00;0.00;;;;;;;4.84;100.00;103225.84;10457290;28;20442;-69
2022/01/25 13:00:53;;;;;;;0.00;0.00;;;;;;;4.82;100.00;103219.75;10457397;28;20036;-71
2022/01/25 13:06:00;;;;;;;0.00;0.00;;;;;;;4.80;100.00;103216.34;10456866;28;20021;-69
2022/01/25 13:11:15;;;;;;;0.00;0.00;;;;;;;4.75;100.00;103213.88;10455486;28;20111;-70
2022/01/25 13:16:53;;;;;;;0.00;0.00;;;;;;;4.71;100.00;103212.31;10456477;28;20025;-69
2022/01/25 13:21:59;;;;;;;0.00;0.00;;;;;;;4.72;100.00;103214.00;10454734;28;20032;-70
2022/01/25 13:27:08;;;;;;;0.00;0.00;;;;;;;4.72;100.00;103211.38;10456155;28;20039;-70
2022/01/25 13:32:19;;;;;;;0.00;0.00;;;;;;;4.69;100.00;103211.50;10455756;28;20070;-71
2022/01/25 13:37:21;;;;;;;0.00;0.00;;;;;;;4.68;100.00;103206.25;10455513;28;20052;-70
2022/01/25 13:42:31;;;;;;;0.00;0.00;;;;;;;4.69;100.00;103200.09;10455322;28;20025;-68
2022/01/25 13:47:31;;;;;;;0.00;0.00;;;;;;;4.70;100.00;103204.44;10453934;28;20029;-70
2022/01/25 13:52:32;;;;;;;0.00;0.00;;;;;;;4.68;100.00;103209.78;10454939;28;20041;-70
2022/01/25 13:57:33;;;;;;;0.00;0.00;;;;;;;4.65;100.00;103206.38;10454659;28;20098;-70
2022/01/25 14:02:33;;;;;;;0.00;0.00;;;;;;;4.66;100.00;103206.34;10454688;28;20086;-70
2022/01/25 14:07:39;;;;;;;0.00;0.00;;;;;;;4.62;100.00;103196.81;10454289;28;20489;-70
2022/01/25 14:23:23;;;;;;;0.00;0.00;;;;;;;4.64;100.00;103187.06;10453705;28;20112;-68
2022/01/25 14:28:25;;;;;;;0.00;0.00;;;;;;;4.64;100.00;103186.19;10453482;28;20060;-70
2022/01/25 14:33:28;;;;;;;0.00;0.00;;;;;;;4.60;100.00;103184.63;10457152;22;20397;-72
2022/01/25 14:38:38;;;;;;;0.00;0.00;;;;;;;4.61;100.00;103194.25;10407683;28;20049;-72
2022/01/25 14:43:52;;;;;;;0.00;0.00;;;;;;;4.57;100.00;103188.25;10410287;28;20053;-72
2022/01/25 14:49:02;;;;;;;0.00;0.00;;;;;;;4.56;100.00;103193.56;10409811;28;20368;-72
2022/01/25 14:54:04;;;;;;;0.00;0.00;;;;;;;4.52;100.00;103198.97;10409634;28;20045;-71
2022/01/25 14:59:24;;;;;;;0.08;0.08;;;;;;;4.49;100.00;103203.53;10410533;28;20531;-72
2022/01/25 15:04:27;;;;;;;0.00;0.00;;;;;;;4.45;100.00;103200.16;10410564;28;20109;-72
2022/01/25 15:09:27;;;;;;;0.00;0.00;;;;;;;4.43;100.00;103209.06;10396843;28;20021;-71
2022/01/25 15:14:37;;;;;;;0.00;0.00;;;;;;;4.41;100.00;103195.03;10393235;28;20396;-72
2022/01/25 15:19:37;;;;;;;0.00;0.00;;;;;;;4.38;100.00;103201.31;10370045;28;20036;-72
2022/01/25 15:24:41;;;;;;;0.00;0.00;;;;;;;4.37;100.00;103196.97;10379795;28;20024;-72
2022/01/25 15:29:42;;;;;;;0.00;0.00;;;;;;;4.34;100.00;103197.06;10367256;28;20022;-72
2022/01/25 15:34:43;;;;;;;0.00;0.00;;;;;;;4.30;100.00;103198.09;10365907;28;20034;-72
2022/01/25 15:39:44;;;;;;;0.00;0.00;;;;;;;4.28;100.00;103194.69;10397294;28;20492;-72
2022/01/25 15:44:46;;;;;;;0.00;0.00;;;;;;;4.27;100.00;103198.22;10392170;28;20026;-72
2022/01/25 15:49:48;;;;;;;0.00;0.00;;;;;;;4.25;100.00;103194.81;10405774;28;20104;-71
2022/01/25 15:54:48;;;;;;;0.00;0.00;;;;;;;4.22;100.00;103203.69;10407530;28;20079;-71
2022/01/25 15:59:49;;;;;;;0.00;0.00;;;;;;;4.18;100.00;103195.94;10407148;28;20024;-72
2022/01/25 16:04:49;;;;;;;0.00;0.00;;;;;;;4.18;100.00;103190.66;10406925;28;20583;-72
2022/01/25 16:09:55;;;;;;;0.00;0.00;;;;;;;4.15;100.00;103194.28;10405876;28;20380;-72
2022/01/25 16:14:55;;;;;;;0.00;0.00;;;;;;;4.15;100.00;103180.25;10381381;28;20030;-71
2022/01/25 16:19:56;;;;;;;0.00;0.00;;;;;;;4.11;100.00;103182.16;10370798;28;20206;-71
2022/01/25 16:24:56;;;;;;;0.00;0.00;;;;;;;4.09;100.00;103183.97;10386601;28;20265;-71
2022/01/25 16:29:56;;;;;;;0.00;0.00;;;;;;;4.08;100.00;103179.63;10406772;28;20021;-72
2022/01/25 16:34:58;;;;;;;0.00;0.00;;;;;;;4.08;100.00;103177.84;10400388;28;20033;-71
2022/01/25 16:39:58;;;;;;;0.00;0.00;;;;;;;4.07;100.00;103176.13;10379197;28;20014;-71
2022/01/25 16:45:01;;;;;;;0.00;0.00;;;;;;;4.06;100.00;103177.03;10364626;28;20022;-72
2022/01/25 16:50:09;;;;;;;0.00;0.00;;;;;;;4.05;100.00;103174.47;10364710;28;20281;-72
2022/01/25 16:55:11;;;;;;;0.00;0.00;;;;;;;4.05;100.00;103185.88;10395476;28;20533;-72
2022/01/25 17:00:15;;;;;;;0.00;0.00;;;;;;;4.05;100.00;103183.25;10396233;28;20430;-72
2022/01/25 17:05:16;;;;;;;0.00;0.00;;;;;;;4.05;100.00;103183.25;10377730;28;20026;-72
2022/01/25 17:10:16;;;;;;;0.00;0.00;;;;;;;4.05;100.00;103180.59;10377039;28;20018;-72
2022/01/25 17:15:17;;;;;;;0.00;0.00;;;;;;;4.05;100.00;103183.25;10374581;28;20030;-72
2022/01/25 17:20:20;;;;;;;0.00;0.00;;;;;;;4.05;100.00;103188.53;10372074;28;20337;-73
2022/01/25 17:25:20;;;;;;;0.00;0.00;;;;;;;4.05;100.00;103192.94;10410051;28;20205;-72
2022/01/25 17:30:21;;;;;;;0.00;0.00;;;;;;;4.05;100.00;103198.22;10412523;28;20100;-71
2022/01/25 17:35:21;;;;;;;0.00;0.00;;;;;;;4.02;100.00;103196.56;10406996;28;20036;-72
2022/01/25 17:40:22;;;;;;;0.00;0.00;;;;;;;4.03;100.00;103195.63;10385612;28;20021;-72
2022/01/25 17:45:22;;;;;;;0.00;0.00;;;;;;;4.03;100.00;103200.91;10404388;28;20087;-72
2022/01/25 17:50:23;;;;;;;0.00;0.00;;;;;;;4.02;100.00;103199.19;10411889;28;20021;-72
2022/01/25 17:55:23;;;;;;;0.00;0.00;;;;;;;4.00;100.00;103194.88;10407995;28;20268;-72
2022/01/25 18:00:23;;;;;;;0.00;0.00;;;;;;;3.97;100.00;103190.59;10410564;28;20071;-71
2022/01/25 18:05:24;;;;;;;0.00;0.00;;;;;;;3.96;100.00;103191.50;10412851;28;20427;-71
2022/01/25 18:10:25;;;;;;;0.00;0.00;;;;;;;3.96;100.00;103199.41;10405141;28;20018;-72
2022/01/25 18:15:26;;;;;;;0.00;0.00;;;;;;;3.96;100.00;103204.69;10402770;28;20060;-72
2022/01/25 18:20:31;;;;;;;0.00;0.00;;;;;;;3.97;100.00;103200.28;10411778;28;20049;-71
2022/01/25 18:30:35;;;;;;;0.00;0.00;;;;;;;3.95;100.00;103208.22;10411500;28;20781;-72
2022/01/25 18:35:35;;;;;;;0.00;0.00;;;;;;;3.95;100.00;103205.59;10411591;28;20041;-72
2022/01/25 18:40:36;;;;;;;0.00;0.00;;;;;;;3.93;100.00;103194.25;10409842;28;20120;-71
2022/01/25 18:45:37;;;;;;;0.00;0.00;;;;;;;3.92;100.00;103196.94;10410926;28;20021;-72
2022/01/25 18:50:37;;;;;;;0.00;0.00;;;;;;;3.90;100.00;103199.66;10406753;28;20288;-71
2022/01/25 18:55:37;;;;;;;0.00;0.00;;;;;;;3.86;100.00;103190.13;10410720;28;20027;-71
2022/01/25 19:00:38;;;;;;;0.00;0.00;;;;;;;3.85;100.00;103196.31;10410281;28;20031;-72
2022/01/25 19:05:39;;;;;;;0.00;0.00;;;;;;;3.86;100.00;103205.94;10408965;28;20025;-71
2022/01/25 19:10:39;;;;;;;0.00;0.00;;;;;;;3.85;100.00;103198.97;10410729;28;20021;-72
2022/01/25 19:15:40;;;;;;;0.00;0.00;;;;;;;3.81;100.00;103194.69;10410211;28;20044;-72
2022/01/25 19:20:40;;;;;;;0.00;0.00;;;;;;;3.78;100.00;103200.09;10407662;28;20044;-72
2022/01/25 19:25:41;;;;;;;0.00;0.00;;;;;;;3.75;100.00;103195.81;10410115;28;20507;-72
2022/01/25 19:30:41;;;;;;;0.00;0.00;;;;;;;3.77;100.00;103198.38;10409575;28;20489;-72
2022/01/25 19:35:43;;;;;;;0.00;0.00;;;;;;;3.75;100.00;103193.19;10409042;28;20125;-72
2022/01/25 19:40:45;;;;;;;0.00;0.00;;;;;;;3.75;100.00;103187.03;10409973;28;20268;-71
2022/01/25 19:45:47;;;;;;;0.00;0.00;;;;;;;3.75;100.00;103187.03;10401585;28;20041;-72
2022/01/25 19:50:47;;;;;;;0.00;0.00;;;;;;;3.75;100.00;103189.66;10408938;28;20388;-72
2022/01/25 19:55:57;;;;;;;0.00;0.00;;;;;;;3.74;100.00;103182.69;10408908;28;20029;-72
2022/01/25 20:00:59;;;;;;;0.00;0.00;;;;;;;3.73;100.00;103171.28;10409082;28;20025;-71
2022/01/25 20:06:02;;;;;;;0.00;0.00;;;;;;;3.72;100.00;103163.41;10408658;28;20025;-72
2022/01/25 20:11:05;;;;;;;0.00;0.00;;;;;;;3.71;100.00;103153.81;10407094;28;20021;-71
2022/01/25 20:16:12;;;;;;;0.00;0.00;;;;;;;3.70;100.00;103160.84;10409104;28;20052;-71
2022/01/25 20:21:19;;;;;;;0.00;0.00;;;;;;;3.68;100.00;103146.00;10407233;28;20026;-71
2022/01/25 20:26:30;;;;;;;0.00;0.00;;;;;;;3.68;100.00;103146.88;10391684;28;20037;-72
2022/01/25 20:31:34;;;;;;;0.00;0.00;;;;;;;3.66;100.00;103153.09;10395616;28;20394;-71
2022/01/25 20:36:35;;;;;;;0.00;0.00;;;;;;;3.65;100.00;103156.66;10400831;28;20052;-72
2022/01/25 20:41:36;;;;;;;0.00;0.00;;;;;;;3.62;100.00;103153.22;10403777;28;20025;-72
2022/01/25 20:46:37;;;;;;;0.00;0.00;;;;;;;3.59;100.00;103144.56;10405772;28;20392;-71
2022/01/25 20:51:38;;;;;;;0.00;0.00;;;;;;;3.57;100.00;103136.72;10397277;28;20105;-71
2022/01/25 20:56:38;;;;;;;0.00;0.00;;;;;;;3.52;100.00;103132.53;10395475;28;20112;-71
2022/01/25 21:01:38;;;;;;;0.00;0.00;;;;;;;3.49;100.00;103128.25;10389313;28;20165;-72
2022/01/25 21:06:42;;;;;;;0.00;0.00;;;;;;;3.43;100.00;103117.91;10397511;28;20287;-72
2022/01/25 21:11:51;;;;;;;0.00;0.00;;;;;;;3.41;100.00;103117.13;10387680;22;20516;-70
2022/01/25 21:16:51;;;;;;;0.00;0.00;;;;;;;3.39;100.00;103113.69;10372519;28;20382;-69
2022/01/25 21:21:51;;;;;;;0.00;0.00;;;;;;;3.40;100.00;103124.19;10372341;28;20033;-70
2022/01/25 21:26:58;;;;;;;0.00;0.00;;;;;;;3.37;100.00;103116.41;10368816;28;20036;-70
2022/01/25 21:31:58;;;;;;;0.00;0.00;;;;;;;3.36;100.00;103121.72;10369801;28;20509;-70
2022/01/25 21:36:59;;;;;;;0.00;0.00;;;;;;;3.33;100.00;103124.47;10370349;28;20294;-70
2022/01/25 21:41:59;;;;;;;0.00;0.00;;;;;;;3.30;100.00;103119.31;10372505;28;20021;-70
2022/01/25 21:47:00;;;;;;;0.00;0.00;;;;;;;3.30;100.00;103116.66;10396133;28;20276;-70
2022/01/25 21:52:01;;;;;;;0.00;0.00;;;;;;;3.28;100.00;103114.06;10369217;28;20165;-70
2022/01/25 21:57:01;;;;;;;0.00;0.00;;;;;;;3.28;100.00;103116.72;10370142;28;20052;-70
2022/01/25 22:02:05;;;;;;;0.00;0.00;;;;;;;3.28;100.00;103110.59;10369560;28;20428;-69
2022/01/25 22:07:10;;;;;;;0.00;0.00;;;;;;;3.26;100.00;103102.75;10370226;28;20108;-69
2022/01/25 22:12:16;;;;;;;;;;;;;;;3.25;100.00;103108.91;10370167;28;20022;-71
2022/01/25 22:17:16;;;;;;;0.00;0.00;;;;;;;3.23;100.00;103102.88;10369985;28;19916;-71
2022/01/25 22:22:17;;;;;;;0.00;0.00;;;;;;;3.20;100.00;103105.63;10369514;28;20025;-71
2022/01/25 22:27:17;;;;;;;0.00;0.00;;;;;;;3.17;100.00;103101.31;10377871;28;20025;-71
2022/01/25 22:32:17;;;;;;;0.00;0.00;;;;;;;3.13;100.00;103114.63;10368872;28;20025;-71
2022/01/25 22:37:18;;;;;;;0.00;0.00;;;;;;;3.11;100.00;103108.56;10377023;28;20260;-72
2022/01/25 22:42:19;;;;;;;0.00;0.00;;;;;;;3.07;100.00;103099.91;10411749;28;20144;-71
2022/01/25 22:47:36;;;;;;;0.00;0.00;;;;;;;3.07;100.00;103107.81;10411562;28;20021;-71
2022/01/25 22:52:37;;;;;;;0.00;0.00;;;;;;;3.07;100.00;103102.53;10408885;28;20021;-70
2022/01/25 22:57:38;;;;;;;0.00;0.00;;;;;;;3.07;100.00;103107.81;10399495;28;20101;-69
2022/01/25 23:02:39;;;;;;;0.00;0.00;;;;;;;3.06;100.00;103100.84;10367822;28;20480;-70
2022/01/25 23:07:39;;;;;;;0.00;0.00;;;;;;;3.04;100.00;103102.66;10400160;28;20024;-70
2022/01/25 23:17:43;;;;;;;0.00;0.00;;;;;;;3.01;100.00;103107.19;10392875;28;20022;-70
2022/01/25 23:22:48;;;;;;;0.00;0.00;;;;;;;3.01;100.00;103115.94;10367464;28;20030;-70
2022/01/25 23:27:51;;;;;;;0.00;0.00;;;;;;;3.01;100.00;103115.06;10367108;28;20141;-70
2022/01/25 23:38:19;;;;;;;0.00;0.00;;;;;;;2.98;100.00;103107.28;10408502;28;20013;-70
2022/01/25 23:43:27;;;;;;;0.00;0.00;;;;;;;2.96;100.00;103099.44;10407698;28;20021;-70
2022/01/25 23:48:27;;;;;;;0.00;0.00;;;;;;;2.93;100.00;103095.13;10388300;28;20020;-70
